Time;durP1;ratioP1;P1;durP2;ratioP2;P2;SDS_P1;SDS_P2;PMS_P1;PMS_P2;Temp;Humidity;BMP_temperature;BMP_pressure;BME280_temperature;BME280_humidity;BME280_pressure;Samples;Min_cycle;Max_cycle;Signal;HPM_P1;HPM_P2
2023/07/01 00:00:57;;;;;;;7.80;2.92;;;;;;;20.16;100.00;99997.88;5003497;28;20106;-74
2023/07/01 00:03:23;;;;;;;10.77;3.72;;;;;;;19.63;100.00;99907.94;4983841;28;20053;-74
2023/07/01 00:05:48;;;;;;;7.32;3.72;;;;;;;18.51;100.00;99740.91;5007777;28;20046;-74
2023/07/01 00:08:14;;;;;;;7.05;2.75;;;;;;;19.32;100.00;99907.53;5005738;28;20080;-77
2023/07/01 00:10:39;;;;;;;8.40;3.72;;;;;;;19.75;100.00;99958.84;5006495;28;20030;-74
2023/07/01 00:13:05;;;;;;;5.25;3.00;;;;;;;20.08;100.00;100016.84;5007632;28;20045;-74
2023/07/01 00:15:30;;;;;;;6.80;3.08;;;;;;;19.75;100.00;99982.81;5007531;28;20488;-74
2023/07/01 00:17:56;;;;;;;9.93;3.58;;;;;;;19.88;100.00;100006.22;5007763;28;20042;-73
2023/07/01 00:20:22;;;;;;;5.13;3.22;;;;;;;19.76;100.00;99997.88;5006524;28;20061;-73
2023/07/01 00:22:48;;;;;;;5.93;2.70;;;;;;;19.18;100.00;99918.78;4976142;28;20076;-74
2023/07/01 00:25:13;;;;;;;5.35;2.97;;;;;;;19.66;100.00;100012.47;5001996;28;20046;-75
2023/07/01 00:27:39;;;;;;;4.30;2.78;;;;;;;19.57;100.00;100000.47;5006059;28;20033;-75
2023/07/01 00:30:05;;;;;;;5.75;3.33;;;;;;;19.52;100.00;99989.13;4999585;28;20042;-76
2023/07/01 00:32:30;;;;;;;6.25;3.17;;;;;;;18.94;100.00;99898.53;4988026;28;20800;-75
2023/07/01 00:34:56;;;;;;;7.65;3.22;;;;;;;19.53;100.00;100016.63;5007614;28;20033;-74
2023/07/01 00:37:21;;;;;;;5.53;2.60;;;;;;;18.92;100.00;99905.75;4997277;28;20599;-74
2023/07/01 00:39:47;;;;;;;6.95;3.42;;;;;;;19.24;100.00;99938.91;5002473;28;20045;-75
2023/07/01 00:42:13;;;;;;;4.38;2.67;;;;;;;19.76;100.00;100007.63;5006933;28;20048;-75
2023/07/01 00:44:38;;;;;;;6.53;3.08;;;;;;;19.17;100.00;99911.75;5006870;28;20521;-75
2023/07/01 00:47:05;;;;;;;8.02;3.58;;;;;;;19.23;100.00;99926.56;5002214;28;20121;-74
2023/07/01 00:49:30;;;;;;;6.22;3.45;;;;;;;19.49;100.00;99993.72;5006513;28;20029;-74
2023/07/01 00:51:56;;;;;;;8.95;3.17;;;;;;;19.45;100.00;99976.16;5001491;28;20489;-75
2023/07/01 00:54:23;;;;;;;5.55;3.10;;;;;;;18.94;100.00;99910.06;5006083;28;20080;-74
2023/07/01 00:56:48;;;;;;;4.95;3.17;;;;;;;19.40;100.00;100002.97;5006739;28;20037;-74
2023/07/01 00:59:14;;;;;;;4.38;3.05;;;;;;;18.96;100.00;99937.47;5006968;28;20054;-74
2023/07/01 01:01:43;;;;;;;8.52;3.38;;;;;;;19.40;100.00;99995.00;4998943;28;20046;-74
2023/07/01 01:04:23;;;;;;;3.92;2.20;;;;;;;18.91;100.00;99917.28;4999938;28;20049;-74
2023/07/01 01:06:59;;;;;;;5.00;2.72;;;;;;;19.49;100.00;100007.03;4995870;28;20041;-74
2023/07/01 01:09:47;;;;;;;7.82;3.53;;;;;;;19.39;100.00;100017.22;4996487;28;20151;-73
2023/07/01 01:12:13;;;;;;;4.90;2.85;;;;;;;19.09;100.00;99974.16;5006313;28;20046;-74
2023/07/01 01:14:42;;;;;;;5.70;2.95;;;;;;;19.20;100.00;100006.50;5007056;28;20076;-74
2023/07/01 01:17:11;;;;;;;6.60;2.72;;;;;;;18.85;100.00;99942.34;5006804;28;20033;-74
2023/07/01 01:19:41;;;;;;;4.22;2.00;;;;;;;19.17;100.00;99987.97;4985325;28;20096;-74
2023/07/01 01:22:25;;;;;;;4.68;3.17;;;;;;;19.35;100.00;100004.97;5008245;28;20052;-74
2023/07/01 01:24:57;;;;;;;5.00;2.83;;;;;;;18.72;100.00;99909.19;5004416;28;20619;-73
2023/07/01 01:27:28;;;;;;;7.22;2.70;;;;;;;19.27;100.00;100007.97;5008618;28;20605;-73
2023/07/01 01:29:54;;;;;;;4.85;3.35;;;;;;;18.72;100.00;99923.34;4993092;28;20061;-73
2023/07/01 01:32:19;;;;;;;5.80;2.50;;;;;;;18.66;100.00;99906.78;5003705;28;20033;-73
2023/07/01 01:34:46;;;;;;;5.47;3.42;;;;;;;18.62;100.00;99906.06;5010374;28;20037;-73
2023/07/01 01:37:30;;;;;;;3.00;2.35;;;;;;;18.91;100.00;99966.00;5010149;28;20041;-73
2023/07/01 01:40:09;;;;;;;4.18;2.72;;;;;;;19.16;100.00;99997.75;5006310;28;20100;-73
2023/07/01 01:42:37;;;;;;;5.50;2.78;;;;;;;18.96;100.00;99980.00;5014913;28;20147;-73
2023/07/01 01:45:04;;;;;;;4.88;2.80;;;;;;;18.62;100.00;99929.97;5010332;28;20046;-74
2023/07/01 01:47:31;;;;;;;6.65;3.55;;;;;;;18.45;100.00;99892.59;5006436;28;20133;-74
2023/07/01 01:50:01;;;;;;;5.00;2.88;;;;;;;18.98;100.00;99988.75;5010137;28;20049;-75
2023/07/01 01:52:28;;;;;;;4.57;2.50;;;;;;;18.43;100.00;99899.78;5005822;28;20113;-75
2023/07/01 01:54:55;;;;;;;5.53;3.45;;;;;;;18.84;100.00;99982.28;5010017;28;20076;-74
2023/07/01 01:57:22;;;;;;;7.65;2.95;;;;;;;18.40;100.00;99915.81;5010005;28;20068;-74
2023/07/01 01:59:47;;;;;;;6.40;2.80;;;;;;;18.80;100.00;99994.84;5008549;28;20050;-74
2023/07/01 02:02:13;;;;;;;3.78;2.38;;;;;;;18.80;100.00;99996.63;5002679;28;20477;-73
2023/07/01 02:04:39;;;;;;;10.20;3.28;;;;;;;18.40;100.00;99915.81;5010379;28;20057;-74
2023/07/01 02:07:04;;;;;;;5.22;2.72;;;;;;;18.40;100.00;99913.16;4990764;28;20034;-74
2023/07/01 02:09:30;;;;;;;4.70;2.75;;;;;;;18.12;100.00;99880.63;5009862;28;20048;-74
2023/07/01 02:11:56;;;;;;;4.97;2.40;;;;;;;18.25;100.00;99893.41;5007050;28;20484;-75
2023/07/01 02:14:22;;;;;;;8.50;3.15;;;;;;;18.74;100.00;99971.13;5004110;28;20042;-74
2023/07/01 02:16:52;;;;;;;5.00;2.13;;;;;;;18.66;100.00;99968.78;5005664;28;20041;-74
2023/07/01 02:19:18;;;;;;;6.32;2.80;;;;;;;18.74;100.00;99987.94;5001713;28;20073;-74
2023/07/01 02:21:43;;;;;;;5.35;3.47;;;;;;;18.05;100.00;99878.25;5003136;28;20125;-73
2023/07/01 02:24:09;;;;;;;5.22;3.08;;;;;;;18.71;100.00;100008.47;5007223;28;20050;-74
2023/07/01 02:26:35;;;;;;;4.82;2.47;;;;;;;18.25;100.00;99922.63;4988934;28;20042;-73
2023/07/01 02:29:00;;;;;;;4.38;2.88;;;;;;;18.35;100.00;99954.09;4998798;28;20492;-74
2023/07/01 02:31:26;;;;;;;4.63;2.50;;;;;;;18.19;100.00;99929.06;4995089;28;20465;-74
2023/07/01 02:33:53;;;;;;;6.55;4.07;;;;;;;18.21;100.00;99937.78;4998903;28;20077;-75
2023/07/01 02:36:19;;;;;;;5.18;3.08;;;;;;;18.04;100.00;99929.63;5007706;28;20050;-73
2023/07/01 02:38:44;;;;;;;4.30;2.90;;;;;;;18.28;100.00;99980.91;4987000;28;20113;-76
2023/07/01 02:41:10;;;;;;;3.25;2.28;;;;;;;17.81;100.00;99915.44;5006174;28;20023;-73
2023/07/01 02:43:35;;;;;;;4.95;2.33;;;;;;;17.69;100.00;99907.91;5002826;28;20033;-74
2023/07/01 02:46:01;;;;;;;5.63;3.22;;;;;;;17.93;100.00;99962.78;5006832;28;20042;-73
2023/07/01 02:48:26;;;;;;;8.93;3.45;;;;;;;18.24;100.00;100019.13;5009016;28;20441;-73
2023/07/01 02:50:51;;;;;;;4.85;2.97;;;;;;;17.66;100.00;99939.88;5008389;28;20053;-73
2023/07/01 02:53:20;;;;;;;3.33;2.22;;;;;;;18.05;100.00;100024.28;5000988;28;20030;-73
2023/07/01 02:55:46;;;;;;;5.32;2.95;;;;;;;18.02;100.00;100022.59;5006847;28;20132;-74
2023/07/01 02:58:11;;;;;;;6.43;2.90;;;;;;;17.73;100.00;99981.19;5005337;28;20137;-74
2023/07/01 03:00:37;;;;;;;3.63;2.30;;;;;;;18.05;100.00;100029.59;5006904;28;20050;-73
2023/07/01 03:03:06;;;;;;;4.75;2.60;;;;;;;17.56;100.00;99936.69;4974622;28;20038;-73
2023/07/01 03:05:39;;;;;;;4.72;2.70;;;;;;;18.24;100.00;100035.06;5004979;28;20588;-73
2023/07/01 03:08:05;;;;;;;5.47;2.85;;;;;;;18.24;100.00;100037.72;5008152;28;20038;-73
2023/07/01 03:10:31;;;;;;;4.95;3.20;;;;;;;17.65;100.00;99935.47;4987076;28;20030;-73
2023/07/01 03:12:57;;;;;;;9.25;3.15;;;;;;;17.78;100.00;99949.16;5001560;28;20050;-73
2023/07/01 03:15:23;;;;;;;5.90;3.30;;;;;;;17.92;100.00;100005.28;5008193;28;20053;-73
2023/07/01 03:17:49;;;;;;;4.50;2.17;;;;;;;17.65;100.00;99964.66;5007809;28;20060;-76
2023/07/01 03:20:23;;;;;;;8.38;4.15;;;;;;;17.75;100.00;99973.16;5008258;28;20025;-76
2023/07/01 03:22:53;;;;;;;4.85;3.22;;;;;;;17.57;100.00;99942.88;5006881;28;20045;-74
2023/07/01 03:25:18;;;;;;;6.63;3.25;;;;;;;17.75;100.00;99968.72;4998804;28;20050;-73
2023/07/01 03:27:45;;;;;;;5.25;3.00;;;;;;;18.21;100.00;100041.38;4986503;28;20042;-75
2023/07/01 03:30:14;;;;;;;4.00;2.95;;;;;;;18.11;100.00;100027.56;5008120;28;20073;-73
2023/07/01 03:32:41;;;;;;;6.20;2.55;;;;;;;17.78;100.00;99975.72;5004598;28;20049;-74
2023/07/01 03:35:07;;;;;;;5.30;2.47;;;;;;;17.40;100.00;99928.41;5007013;28;20057;-75
2023/07/01 03:37:32;;;;;;;6.10;3.28;;;;;;;17.79;100.00;99985.41;5007735;28;20034;-73
2023/07/01 03:39:58;;;;;;;4.22;2.70;;;;;;;17.55;100.00;99945.56;4984906;28;20050;-73
2023/07/01 03:42:23;;;;;;;6.82;3.20;;;;;;;17.65;100.00;99941.66;5005162;28;20508;-74
2023/07/01 03:44:49;;;;;;;3.47;2.33;;;;;;;17.78;100.00;99934.09;5007749;28;20045;-73
2023/07/01 03:47:14;;;;;;;4.43;2.45;;;;;;;17.78;100.00;99917.31;4989853;28;20037;-75
2023/07/01 03:49:39;;;;;;;3.85;2.63;;;;;;;17.51;100.00;99854.63;4985858;28;20121;-73
2023/07/01 03:52:05;;;;;;;5.82;2.97;;;;;;;18.51;100.00;100033.16;5004973;28;20454;-73
2023/07/01 03:54:31;;;;;;;7.20;2.53;;;;;;;18.44;100.00;100021.03;5001743;28;20056;-74
2023/07/01 03:56:56;;;;;;;2.78;2.15;;;;;;;18.56;100.00;100044.47;5000906;28;20046;-74
2023/07/01 03:59:22;;;;;;;5.18;2.72;;;;;;;18.03;100.00;99954.47;5007255;28;20045;-74
2023/07/01 04:01:47;;;;;;;3.33;2.15;;;;;;;18.18;100.00;99958.31;5003459;28;20053;-74
2023/07/01 04:04:12;;;;;;;3.72;2.42;;;;;;;18.66;100.00;100021.06;4986645;28;20100;-73
2023/07/01 04:06:39;;;;;;;6.30;3.75;;;;;;;18.82;100.00;100022.22;5005153;28;20041;-73
2023/07/01 04:09:04;;;;;;;3.10;1.83;;;;;;;18.67;100.00;99983.81;4999407;28;20046;-74
2023/07/01 04:11:31;;;;;;;9.13;3.03;;;;;;;18.76;100.00;99998.53;5005683;28;20053;-77
2023/07/01 04:13:57;;;;;;;5.13;4.05;;;;;;;19.02;100.00;100031.19;5008185;28;20041;-75
2023/07/01 04:16:23;;;;;;;4.95;3.22;;;;;;;19.09;100.00;100022.03;4989173;28;20034;-75
2023/07/01 04:18:49;;;;;;;5.25;3.15;;;;;;;18.84;100.00;99975.16;5006445;28;20468;-75
2023/07/01 04:21:14;;;;;;;3.55;2.58;;;;;;;18.73;100.00;99957.00;5005438;28;20076;-76
2023/07/01 04:23:40;;;;;;;5.75;3.60;;;;;;;19.18;100.00;100005.69;4998858;28;20073;-74
2023/07/01 04:26:06;;;;;;;8.63;3.67;;;;;;;19.44;100.00;100027.66;5007612;28;20037;-74
2023/07/01 04:28:31;;;;;;;5.55;2.67;;;;;;;18.93;100.00;99929.59;5002613;28;20030;-74
2023/07/01 04:30:57;;;;;;;9.32;3.92;;;;;;;19.49;100.00;100021.19;5001065;28;20501;-74
2023/07/01 04:33:22;;;;;;;7.80;3.33;;;;;;;19.70;100.00;100024.75;5004501;28;20038;-74
2023/07/01 04:35:48;;;;;;;6.45;3.88;;;;;;;19.78;100.00;100029.75;5001287;28;20525;-74
2023/07/01 04:38:13;;;;;;;7.68;3.45;;;;;;;19.64;100.00;99979.72;5003184;28;20125;-74
2023/07/01 04:40:39;;;;;;;6.85;2.80;;;;;;;19.43;100.00;99935.44;5007623;28;20790;-73
2023/07/01 04:43:04;;;;;;;9.40;4.20;;;;;;;19.50;100.00;99927.16;5007113;28;20042;-74
2023/07/01 04:45:33;;;;;;;5.05;3.45;;;;;;;19.54;100.00;99912.75;5007166;28;20171;-73
2023/07/01 04:47:58;;;;;;;7.00;3.35;;;;;;;20.11;100.00;99995.41;5007165;28;20133;-74
2023/07/01 04:50:24;;;;;;;4.68;3.28;;;;;;;20.27;100.00;100000.00;4996847;28;20034;-74
2023/07/01 04:52:49;;;;;;;3.50;2.67;;;;;;;20.32;100.00;100000.66;5005701;28;20400;-74
2023/07/01 04:55:15;;;;;;;5.10;2.70;;;;;;;20.13;100.00;99948.22;4990057;28;20547;-73
2023/07/01 04:57:41;;;;;;;4.45;2.88;;;;;;;20.60;100.00;99994.91;5006111;28;20034;-74
2023/07/01 05:00:10;;;;;;;3.65;2.38;;;;;;;20.42;100.00;99944.19;5006555;28;20456;-74
2023/07/01 05:02:35;;;;;;;4.90;3.25;;;;;;;20.70;100.00;99987.31;5004994;28;20037;-74
2023/07/01 05:05:01;;;;;;;5.32;3.53;;;;;;;21.00;100.00;99996.50;4999733;28;20054;-74
2023/07/01 05:07:26;;;;;;;5.47;3.58;;;;;;;21.28;100.00;99958.63;5001733;28;20117;-75
2023/07/01 05:09:52;;;;;;;4.28;3.38;;;;;;;21.53;100.00;99935.13;5005024;28;20552;-74
2023/07/01 05:12:17;;;;;;;5.30;3.63;;;;;;;22.51;100.00;100018.84;5001427;28;20393;-74
2023/07/01 05:14:43;;;;;;;6.82;2.83;;;;;;;22.47;100.00;99957.63;5002941;28;20458;-74
2023/07/01 05:17:08;;;;;;;9.90;4.28;;;;;;;23.02;100.00;100005.31;5004012;28;20026;-74
2023/07/01 05:19:34;;;;;;;6.55;3.53;;;;;;;22.89;100.00;100028.34;4997371;28;20034;-74
2023/07/01 05:22:00;;;;;;;6.68;4.82;;;;;;;22.79;100.00;99914.78;5005239;28;20046;-75
2023/07/01 05:24:25;;;;;;;4.97;3.88;;;;;;;24.00;100.00;99985.16;5003982;28;20050;-74
2023/07/01 05:26:51;;;;;;;4.50;2.72;;;;;;;24.63;100.00;100016.03;5001474;28;20137;-74
2023/07/01 05:29:25;;;;;;;4.15;2.80;;;;;;;24.56;100.00;99961.06;5002882;28;20070;-74
2023/07/01 05:31:50;;;;;;;4.68;3.17;;;;;;;25.01;100.00;99993.88;4995743;28;20120;-74
2023/07/01 05:34:16;;;;;;;5.22;2.88;;;;;;;25.09;100.00;99948.56;4982451;28;20141;-74
2023/07/01 05:36:42;;;;;;;5.68;3.03;;;;;;;25.34;100.00;99939.72;5005933;28;20081;-74
2023/07/01 05:39:08;;;;;;;3.95;2.60;;;;;;;25.48;100.00;99928.88;5000349;28;20046;-74
2023/07/01 05:41:33;;;;;;;5.38;2.40;;;;;;;26.19;100.00;100031.47;5000374;28;20091;-74
2023/07/01 05:43:59;;;;;;;5.70;3.42;;;;;;;25.60;100.00;100031.09;4999172;28;20046;-75
2023/07/01 05:46:26;;;;;;;6.28;4.07;;;;;;;26.33;100.00;100015.19;4993482;28;20049;-74
2023/07/01 05:48:52;;;;;;;5.75;2.83;;;;;;;26.68;100.00;100046.78;4993833;28;20494;-74
2023/07/01 05:51:17;;;;;;;5.32;2.22;;;;;;;26.65;100.00;100024.63;4999602;28;20060;-74
2023/07/01 05:53:45;;;;;;;4.68;3.15;;;;;;;27.14;100.00;100031.75;5006498;28;20097;-75
2023/07/01 05:56:10;;;;;;;4.35;2.42;;;;;;;27.49;99.04;100026.41;5006349;28;20079;-74
2023/07/01 05:58:36;;;;;;;3.05;2.45;;;;;;;27.15;93.26;99942.72;5006449;28;20049;-74
2023/07/01 06:01:02;;;;;;;2.55;1.98;;;;;;;27.71;84.25;100020.19;4998392;28;20093;-74
2023/07/01 06:03:27;;;;;;;3.58;2.42;;;;;;;27.14;83.08;99940.16;5002224;28;20153;-74
2023/07/01 06:05:53;;;;;;;5.25;1.95;;;;;;;27.52;86.16;99969.56;5003113;28;20046;-74
2023/07/01 06:08:19;;;;;;;6.55;2.58;;;;;;;27.30;87.32;99948.81;5007177;28;20061;-74
2023/07/01 06:10:44;;;;;;;2.15;1.92;;;;;;;27.62;73.31;100026.31;5004618;28;20081;-75
2023/07/01 06:13:10;;;;;;;3.08;2.05;;;;;;;27.43;76.29;99954.09;5004774;28;20049;-74
2023/07/01 06:15:35;;;;;;;6.30;2.33;;;;;;;27.29;76.12;99940.84;5000797;28;20054;-74
2023/07/01 06:18:01;;;;;;;5.10;2.95;;;;;;;27.85;75.67;99994.03;5005680;28;20362;-74
2023/07/01 06:20:26;;;;;;;4.75;2.40;;;;;;;27.37;72.09;100019.28;5007882;28;20042;-74
2023/07/01 06:22:51;;;;;;;3.00;2.03;;;;;;;27.25;67.62;100029.13;5006724;28;20041;-74
2023/07/01 06:25:17;;;;;;;3.35;1.20;;;;;;;27.46;62.92;99972.72;5002741;28;20057;-74
2023/07/01 06:27:43;;;;;;;3.78;1.70;;;;;;;26.63;65.84;99952.06;5000650;28;20046;-73
2023/07/01 06:30:08;;;;;;;5.40;2.15;;;;;;;27.56;74.20;100018.72;4993956;28;20490;-74
2023/07/01 06:32:34;;;;;;;4.93;1.70;;;;;;;27.17;67.49;99943.47;5002541;28;20982;-73
2023/07/01 06:34:59;;;;;;;2.70;1.65;;;;;;;27.90;67.22;99997.22;5009072;28;20034;-73
2023/07/01 06:37:24;;;;;;;3.90;1.75;;;;;;;27.87;66.56;100019.91;5008909;28;20775;-73
2023/07/01 06:39:50;;;;;;;9.38;1.98;;;;;;;27.19;63.08;100013.41;5008843;28;20060;-72
2023/07/01 06:42:15;;;;;;;2.95;1.42;;;;;;;26.35;65.09;99926.31;5006620;28;20120;-73
2023/07/01 06:44:41;;;;;;;2.60;1.70;;;;;;;27.59;69.43;99969.94;5008019;28;20057;-75
2023/07/01 06:47:06;;;;;;;3.13;1.48;;;;;;;27.86;62.99;99931.00;5005875;28;20041;-73
2023/07/01 06:49:32;;;;;;;5.13;2.08;;;;;;;27.02;66.10;99951.84;5008380;28;20038;-73
2023/07/01 06:51:58;;;;;;;2.75;1.75;;;;;;;28.09;66.98;99996.59;5008596;28;20061;-74
2023/07/01 06:54:23;;;;;;;3.63;1.73;;;;;;;28.09;75.17;99969.63;5008754;28;20054;-74
2023/07/01 06:56:49;;;;;;;2.33;1.67;;;;;;;27.81;63.54;100022.19;4982398;28;20041;-74
2023/07/01 06:59:14;;;;;;;2.78;1.67;;;;;;;28.29;69.27;100000.41;4992912;28;20049;-76
2023/07/01 07:01:40;;;;;;;7.20;2.03;;;;;;;28.14;74.72;99948.53;5002789;28;20129;-74
2023/07/01 07:04:06;;;;;;;3.60;2.03;;;;;;;28.18;66.58;99923.03;5005099;28;20595;-74
2023/07/01 07:06:32;;;;;;;2.33;1.42;;;;;;;28.47;67.48;100000.78;5003430;28;20137;-74
2023/07/01 07:08:57;;;;;;;4.53;2.58;;;;;;;27.80;60.69;99956.59;4990958;28;20140;-74
2023/07/01 07:11:24;;;;;;;2.33;1.75;;;;;;;27.50;66.79;100000.31;4993971;28;20481;-73
2023/07/01 07:13:49;;;;;;;2.22;1.50;;;;;;;27.34;64.17;99936.81;5001031;28;20116;-75
2023/07/01 07:16:15;;;;;;;3.47;1.98;;;;;;;27.83;66.73;99995.94;5005522;28;20129;-74
2023/07/01 07:18:40;;;;;;;2.58;1.42;;;;;;;28.15;63.20;99978.09;4986725;28;20158;-74
2023/07/01 07:21:06;;;;;;;2.33;1.38;;;;;;;27.49;63.04;99988.66;5000644;28;20176;-73
2023/07/01 07:23:31;;;;;;;0.90;0.70;;;;;;;27.79;59.78;99995.31;5004650;28;20116;-73
2023/07/01 07:25:57;;;;;;;3.45;1.73;;;;;;;28.25;58.93;100024.06;5007097;28;20026;-73
2023/07/01 07:28:22;;;;;;;4.07;1.48;;;;;;;27.13;58.70;99839.63;5005742;28;20049;-72
2023/07/01 07:30:48;;;;;;;2.67;1.50;;;;;;;27.56;63.64;99910.88;5001587;28;20511;-74
2023/07/01 07:33:13;;;;;;;2.80;1.58;;;;;;;27.94;59.05;99983.38;5002796;28;20046;-76
2023/07/01 07:35:39;;;;;;;1.80;1.27;;;;;;;28.11;64.62;99924.50;5004810;28;20204;-75
2023/07/01 07:38:04;;;;;;;2.22;1.40;;;;;;;28.62;59.20;99984.19;4973953;28;20370;-75
2023/07/01 07:40:30;;;;;;;1.45;0.80;;;;;;;28.70;54.95;99988.94;4997783;28;20096;-75
2023/07/01 07:42:55;;;;;;;2.85;1.60;;;;;;;28.85;59.81;99984.13;5005780;28;20653;-75
2023/07/01 07:45:22;;;;;;;5.10;2.35;;;;;;;28.93;57.50;99980.78;4998736;28;20061;-75
2023/07/01 07:47:47;;;;;;;3.05;1.58;;;;;;;28.73;53.31;99966.22;5001957;28;20546;-75
2023/07/01 07:50:13;;;;;;;1.55;0.80;;;;;;;28.41;53.48;99994.88;4999667;28;20030;-73
2023/07/01 07:52:38;;;;;;;2.85;1.33;;;;;;;28.63;61.48;99936.44;4982145;28;20478;-69
2023/07/01 07:55:04;;;;;;;6.35;1.95;;;;;;;28.61;53.42;99979.78;4998350;28;20199;-73
2023/07/01 07:57:29;;;;;;;2.60;1.63;;;;;;;28.82;68.49;99995.16;5005005;28;20046;-73
2023/07/01 07:59:55;;;;;;;2.17;1.20;;;;;;;28.51;54.46;99969.84;5006245;28;20061;-72
2023/07/01 08:02:21;;;;;;;1.50;1.10;;;;;;;28.82;61.58;99974.44;5000616;28;20045;-71
2023/07/01 08:04:47;;;;;;;2.78;1.42;;;;;;;28.90;57.82;99984.59;4997660;28;20045;-72
2023/07/01 08:07:13;;;;;;;2.17;1.38;;;;;;;28.94;52.78;100001.41;4998878;28;20050;-71
2023/07/01 08:09:39;;;;;;;4.80;2.80;;;;;;;28.52;70.56;99886.06;5003043;28;20415;-70
2023/07/01 08:12:05;;;;;;;1.88;1.13;;;;;;;28.54;53.55;99956.97;5001388;28;20053;-71
2023/07/01 08:14:31;;;;;;;1.63;1.10;;;;;;;28.72;53.06;99962.69;4996479;28;20054;-71
2023/07/01 08:16:59;;;;;;;4.07;1.58;;;;;;;29.67;55.59;99986.25;4995378;28;20050;-72
2023/07/01 08:19:25;;;;;;;4.38;2.60;;;;;;;29.29;61.22;99941.72;4997633;28;20204;-72
2023/07/01 08:21:50;;;;;;;3.38;1.55;;;;;;;29.35;52.74;99943.03;5000178;28;20478;-72
2023/07/01 08:24:16;;;;;;;1.40;1.08;;;;;;;29.25;54.40;99968.13;4990246;28;20534;-72
2023/07/01 08:26:42;;;;;;;9.52;5.38;;;;;;;28.76;67.31;99920.94;4991272;28;20061;-73
2023/07/01 08:29:09;;;;;;;3.70;2.13;;;;;;;29.52;54.59;99972.16;4995003;28;20040;-72
2023/07/01 08:31:35;;;;;;;4.10;1.90;;;;;;;29.15;50.90;99963.63;4997655;28;20041;-73
2023/07/01 08:34:01;;;;;;;5.50;2.92;;;;;;;29.21;54.43;99907.22;4987772;28;20081;-70
2023/07/01 08:36:27;;;;;;;2.78;2.22;;;;;;;29.82;52.43;99906.44;4994004;28;20054;-70
2023/07/01 08:38:53;;;;;;;3.28;1.67;;;;;;;30.05;48.33;99963.06;4999016;28;20676;-70
2023/07/01 08:41:21;;;;;;;5.68;3.50;;;;;;;29.87;52.92;99898.75;4996195;28;20037;-71
2023/07/01 08:43:50;;;;;;;3.70;1.92;;;;;;;29.10;47.52;99895.63;5003420;28;20033;-72
2023/07/01 08:46:18;;;;;;;6.45;2.78;;;;;;;29.40;47.67;99911.88;5001400;28;20052;-72
2023/07/01 08:48:45;;;;;;;3.40;1.73;;;;;;;29.71;48.32;99957.06;5001400;28;20544;-70
2023/07/01 08:51:31;;;;;;;3.95;1.60;;;;;;;30.28;48.19;99890.66;4976556;28;20049;-70
2023/07/01 08:53:59;;;;;;;3.78;2.72;;;;;;;30.23;48.58;99892.91;5001756;28;20546;-72
2023/07/01 08:56:25;;;;;;;4.05;1.38;;;;;;;29.99;45.40;99902.25;4998643;28;20413;-69
2023/07/01 08:58:51;;;;;;;6.35;1.77;;;;;;;30.48;46.92;99970.06;4992982;28;20054;-71
2023/07/01 09:01:17;;;;;;;3.60;2.08;;;;;;;31.00;46.75;99965.34;4991054;28;20078;-70
2023/07/01 09:03:46;;;;;;;3.50;2.72;;;;;;;30.73;45.83;99903.69;4990678;28;20042;-69
2023/07/01 09:06:11;;;;;;;2.78;1.52;;;;;;;30.58;44.01;99954.72;4998319;28;20050;-69
2023/07/01 09:08:40;;;;;;;3.03;2.33;;;;;;;30.48;45.52;99957.41;4993669;28;20555;-70
2023/07/01 09:11:10;;;;;;;2.15;1.50;;;;;;;30.89;44.18;99889.59;4995342;28;20041;-71
2023/07/01 09:13:36;;;;;;;3.95;2.58;;;;;;;31.68;44.65;99954.41;5001241;28;20042;-70
2023/07/01 09:16:01;;;;;;;4.43;3.03;;;;;;;30.85;43.19;99951.34;5004286;28;20054;-71
2023/07/01 09:18:29;;;;;;;8.73;7.57;;;;;;;31.21;48.98;99875.72;4998333;28;20042;-70
2023/07/01 09:20:55;;;;;;;2.20;1.58;;;;;;;31.28;44.34;99865.13;4996639;28;20069;-69
2023/07/01 09:23:36;;;;;;;2.58;1.50;;;;;;;30.54;45.15;99882.00;4992107;28;20080;-70
2023/07/01 09:26:17;;;;;;;2.55;2.03;;;;;;;30.96;42.80;99941.38;4994063;28;20512;-70
2023/07/01 09:28:49;;;;;;;5.75;4.15;;;;;;;31.47;44.29;99881.38;4996002;28;20037;-70
2023/07/01 09:31:16;;;;;;;7.88;4.20;;;;;;;32.15;45.75;99916.38;4997742;28;20494;-72
2023/07/01 09:34:03;;;;;;;6.72;1.83;;;;;;;30.68;41.71;99933.03;4997179;28;20054;-70
2023/07/01 09:36:31;;;;;;;1.98;1.17;;;;;;;29.39;43.78;99860.69;5003642;28;20072;-70
2023/07/01 09:38:56;;;;;;;8.75;5.72;;;;;;;30.59;45.27;99896.81;4980694;28;20045;-71
2023/07/01 09:41:24;;;;;;;3.65;2.58;;;;;;;31.62;45.28;99889.03;4991881;28;20108;-70
2023/07/01 09:43:51;;;;;;;1.65;1.00;;;;;;;32.57;42.89;99906.88;5006825;28;20450;-71
2023/07/01 09:46:17;;;;;;;2.22;1.45;;;;;;;32.89;43.06;99914.44;4997941;28;21025;-71
2023/07/01 09:48:56;;;;;;;4.80;3.53;;;;;;;32.25;43.51;99915.47;5002586;28;20052;-70
2023/07/01 09:51:26;;;;;;;3.50;2.13;;;;;;;32.43;43.63;99910.03;4986429;28;20054;-70
2023/07/01 09:53:51;;;;;;;1.60;1.08;;;;;;;32.05;39.67;99912.84;5000939;28;20454;-69
2023/07/01 09:56:18;;;;;;;1.75;1.13;;;;;;;31.36;40.76;99902.38;5005822;28;20036;-70
2023/07/01 09:58:45;;;;;;;3.38;2.35;;;;;;;31.86;43.85;99896.63;4989406;28;20119;-71
2023/07/01 10:01:13;;;;;;;1.83;1.15;;;;;;;32.22;42.30;99902.19;5002091;28;20137;-69
2023/07/01 10:03:39;;;;;;;4.57;2.72;;;;;;;33.00;41.72;99902.47;4997210;28;20528;-69
2023/07/01 10:06:05;;;;;;;4.78;2.72;;;;;;;33.30;41.22;99886.78;4998909;28;20065;-70
2023/07/01 10:08:30;;;;;;;11.38;2.30;;;;;;;33.06;40.12;99880.16;5003377;28;20506;-71
2023/07/01 10:11:11;;;;;;;3.88;3.40;;;;;;;32.86;40.52;99873.16;5007764;28;20030;-70
2023/07/01 10:13:47;;;;;;;2.35;1.63;;;;;;;32.76;39.59;99830.59;5002483;28;20056;-71
2023/07/01 10:16:13;;;;;;;4.72;3.25;;;;;;;33.53;40.82;99887.06;5004454;28;20049;-73
2023/07/01 10:18:39;;;;;;;13.25;10.48;;;;;;;31.42;50.79;99886.41;4999988;28;20100;-69
2023/07/01 10:21:25;;;;;;;2.70;1.95;;;;;;;30.49;41.26;99898.69;5000375;28;20481;-70
2023/07/01 10:23:51;;;;;;;1.75;1.20;;;;;;;30.07;40.80;99825.78;4999639;28;20053;-69
2023/07/01 10:26:36;;;;;;;4.72;3.47;;;;;;;32.74;40.46;99881.53;5003286;28;20065;-70
2023/07/01 10:29:30;;;;;;;2.72;1.73;;;;;;;32.17;38.36;99880.91;5000143;28;20058;-70
2023/07/01 10:32:13;;;;;;;2.28;1.40;;;;;;;32.96;39.32;99871.19;4994282;28;20032;-68
2023/07/01 10:34:53;;;;;;;4.47;2.70;;;;;;;33.28;42.50;99867.03;4993978;28;20066;-68
2023/07/01 10:37:24;;;;;;;3.30;1.75;;;;;;;33.64;37.76;99854.16;4997545;28;20176;-71
2023/07/01 10:39:50;;;;;;;5.72;2.35;;;;;;;32.73;36.46;99841.81;5001493;28;20117;-71
2023/07/01 10:42:31;;;;;;;8.60;7.22;;;;;;;32.67;38.96;99806.25;4991732;28;20072;-70
2023/07/01 10:45:12;;;;;;;2.77;1.53;;;;;;;33.56;39.09;99871.28;4998875;28;20069;-71
2023/07/01 10:47:50;;;;;;;9.27;6.70;;;;;;;32.34;38.21;99879.25;4999008;28;20077;-70
2023/07/01 10:50:19;;;;;;;5.15;3.50;;;;;;;32.87;39.10;99799.59;4999004;28;20045;-70
2023/07/01 10:52:57;;;;;;;2.85;1.63;;;;;;;32.56;37.73;99807.34;4995950;28;20034;-70
2023/07/01 10:55:47;;;;;;;4.43;3.67;;;;;;;33.76;38.61;99861.03;4997051;28;20509;-71
2023/07/01 10:58:32;;;;;;;2.10;1.55;;;;;;;31.58;38.21;99869.47;4997076;28;20045;-71
2023/07/01 11:00:58;;;;;;;2.47;1.67;;;;;;;31.24;39.56;99866.44;4993706;28;20528;-71
2023/07/01 11:03:36;;;;;;;14.02;9.85;;;;;;;31.51;46.54;99868.34;4993824;28;20049;-71
2023/07/01 11:06:10;;;;;;;5.15;3.85;;;;;;;32.40;39.23;99786.28;5003710;28;20134;-71
2023/07/01 11:08:51;;;;;;;3.75;3.15;;;;;;;32.72;39.95;99850.94;4977988;28;20502;-71
2023/07/01 11:11:21;;;;;;;5.45;4.22;;;;;;;32.65;40.15;99849.88;4995665;28;20500;-70
2023/07/01 11:14:05;;;;;;;1.75;0.95;;;;;;;32.64;39.03;99821.00;5000226;28;20041;-69
2023/07/01 11:16:32;;;;;;;9.70;7.43;;;;;;;32.08;41.52;99781.41;5000979;28;20080;-70
2023/07/01 11:19:01;;;;;;;3.58;1.33;;;;;;;31.88;38.73;99795.06;4991039;28;20502;-71
2023/07/01 11:21:28;;;;;;;3.75;1.50;;;;;;;31.54;39.21;99738.75;5001056;28;20063;-69
2023/07/01 11:24:21;;;;;;;6.47;4.80;;;;;;;32.18;42.93;99826.47;4998361;28;20117;-70
2023/07/01 11:26:46;;;;;;;6.07;2.83;;;;;;;33.30;38.91;99818.78;4993385;28;20049;-70
2023/07/01 11:29:16;;;;;;;3.28;1.90;;;;;;;32.52;40.50;99793.22;4995408;28;20394;-69